North Highlands, CA (95652)

4:44 AM PDT on August 20, 2014 (GMT -0700)
Antelope Run | Change Station
CLOSE
Current Station
Personal Weather Station
Location: Antelope, CA
Elevation: 69 ft
Nearby Weather Stations

Elev 69 ft 38.72 °N, 121.38 °W | Updated 2 seconds ago

Scattered Clouds
Scattered Clouds
61.7 °F
Feels Like 61.7 °F
N
6.0
Wind Variable Wind from ESE
Gusts 11.0 mph

Today
High -- | Low -- °F
--% Chance of Precip.
Yesterday
High -- | Low -- °F
Precip. -- in
6:24 AM 7:52 PM
Waning Crescent, 22% visible
Pressure 29.83 in
Visibility 10.0 miles
Clouds Scattered Clouds 1400 ft
Dew Point 57 °F
Humidity 85%
Rainfall 0.00 in
Snow Depth Not available.
UV 0 out of 12
Pollen 6.20 out of 12
Ozone Good
PM2.5 Good
Flu Activity Not available.
METAR KMHR 201046Z 20010KT 10SM SCT014 16/15 A2983

More Conditions Fewer Conditions

Pressure 29.83 in
Visibility 10.0 miles
Clouds Scattered Clouds 1400 ft
Dew Point 57 °F
Humidity 85%
Rainfall 0.00 in
Snow Depth Not available.
UV 0 out of 12
Pollen 6.20 out of 12
Ozone Good
PM2.5 Good
Flu Activity Not available.
METAR KMHR 201046Z 20010KT 10SM SCT014 16/15 A2983

More Conditions Fewer Conditions

10-Day Weather Forecast

Almanac

Astronomy

Aug. 20, 2014 Rise Set
Actual Time 6:24 AM PDT 7:52 PM PDT
Civil Twilight 5:56 AM PDT 8:20 PM PDT
Nautical Twilight 5:22 AM PDT 8:54 PM PDT
Astronomical Twilight 4:46 AM PDT 9:29 PM PDT
Moon 2:09 AM PDT 4:40 PM PDT
Length of Visible Light 14h 24m
Length of Day
13h 28m
Tomorrow will be 2m 17s shorter.
Waning Crescent, 22% of the Moon is Illuminated
Today
Waning Crescent
Aug 25
New
Sep 2
First Quarter
Sep 8
Full
Sep 15
Last Quarter

Today's Extremes

State Highs State Lows

Community

WunderPhotos

Upload Photos

1,745,611 photos uploaded!

Nearby

Air Quality

  Air Quality AQ Index Pollutant
Yesterday Moderate
OZONE
Yesterday Good
PM2.5
Current Good
PM2.5
Current Good
OZONE
Wednesday Moderate
OZONE
Thursday Moderate
OZONE
Friday Moderate
OZONE
Saturday Moderate
OZONE
Sunday Moderate
OZONE

Snow Depth

Station Depth Elevation
CSS Lab 0 in 6900 ft
Echo Peak 1 in 7800 ft
Fallen Leaf 0 in 6300 ft
Forestdale Creek 0 in 8029 ft
Hagan's Meadow 0 in 8000 ft

Earthquake Activity

City Distance Mag. Time & Date
Mariposa, California 117 miles 2.5 4:54 AM PDT
2014-08-14
Mariposa, California 118 miles 2.7 3:31 AM PDT
2014-08-14
The Geysers, California 74 miles 2.6 8:55 PM PDT
2014-08-13
Upper Lake, California 92 miles 2.9 3:32 PM PDT
2014-08-13
Minimum magnitude displayed is 2.5.

Coastal Water Temperatures

Place Temperature
No Stations Reporting

Nearby Weather Stations